Time;durP1;ratioP1;P1;durP2;ratioP2;P2;SDS_P1;SDS_P2;PMS_P1;PMS_P2;Temp;Humidity;BMP_temperature;BMP_pressure;BME280_temperature;BME280_humidity;BME280_pressure;Samples;Min_cycle;Max_cycle;Signal;HPM_P1;HPM_P2
2023/09/24 00:02:05;;;;;;;2.90;2.20;;;15.40;90.40;;;;;;5027418;28;20057;-55
2023/09/24 00:04:31;;;;;;;3.28;2.42;;;15.40;90.40;;;;;;5042444;28;20033;-55
2023/09/24 00:06:56;;;;;;;3.53;2.42;;;15.40;90.40;;;;;;5027260;28;20048;-55
2023/09/24 00:09:22;;;;;;;5.38;2.47;;;15.50;90.50;;;;;;5028474;28;20069;-55
2023/09/24 00:11:48;;;;;;;2.70;2.03;;;15.40;90.50;;;;;;5027161;28;20027;-55
2023/09/24 00:14:14;;;;;;;3.63;2.50;;;15.40;90.50;;;;;;5028503;28;20037;-55
2023/09/24 00:16:40;;;;;;;3.45;2.60;;;15.40;90.50;;;;;;5027513;28;20034;-55
2023/09/24 00:19:06;;;;;;;4.35;2.70;;;15.40;90.60;;;;;;5010778;28;20034;-55
2023/09/24 00:21:31;;;;;;;6.05;2.80;;;15.40;90.60;;;;;;5010736;28;20033;-55
2023/09/24 00:23:57;;;;;;;4.45;2.95;;;15.40;90.60;;;;;;5027879;28;20042;-55
2023/09/24 00:26:25;;;;;;;4.53;2.80;;;15.30;90.70;;;;;;5026877;28;20045;-55
2023/09/24 00:28:50;;;;;;;4.13;2.17;;;15.30;90.70;;;;;;5028110;28;20024;-55
2023/09/24 00:31:16;;;;;;;3.45;2.30;;;15.20;90.70;;;;;;5026681;28;20076;-55
2023/09/24 00:33:42;;;;;;;6.22;2.50;;;15.20;90.70;;;;;;5025920;28;20026;-55
2023/09/24 00:36:08;;;;;;;6.30;2.80;;;15.20;90.80;;;;;;5026648;28;20033;-55
2023/09/24 00:38:33;;;;;;;6.22;3.30;;;15.20;90.90;;;;;;5027944;28;20022;-55
2023/09/24 00:40:59;;;;;;;4.82;2.65;;;15.20;90.90;;;;;;5026776;28;20049;-55
2023/09/24 00:43:26;;;;;;;4.20;2.45;;;15.10;90.90;;;;;;5026515;28;20030;-55
2023/09/24 00:45:52;;;;;;;3.85;2.08;;;15.10;90.90;;;;;;5027986;28;20026;-55
2023/09/24 00:48:17;;;;;;;4.68;2.55;;;15.10;90.90;;;;;;5026677;28;20034;-55
2023/09/24 00:50:43;;;;;;;3.20;2.33;;;15.10;91.30;;;;;;5042676;28;20049;-55
2023/09/24 00:53:09;;;;;;;3.67;2.45;;;15.10;91.00;;;;;;5010089;28;20034;-55
2023/09/24 00:55:34;;;;;;;4.03;2.22;;;15.10;91.00;;;;;;5026219;28;20053;-55
2023/09/24 00:58:00;;;;;;;4.10;2.75;;;15.00;91.00;;;;;;5026293;28;20021;-55
2023/09/24 01:00:30;;;;;;;2.65;1.90;;;15.00;91.00;;;;;;5042701;28;20164;-55
2023/09/24 01:02:57;;;;;;;4.07;2.05;;;15.00;91.00;;;;;;5042221;28;20033;-55
2023/09/24 01:05:23;;;;;;;2.47;2.28;;;15.00;91.10;;;;;;5042550;28;20049;-55
2023/09/24 01:07:48;;;;;;;3.85;2.13;;;15.00;91.20;;;;;;5027356;28;20022;-55
2023/09/24 01:10:15;;;;;;;3.17;2.38;;;14.90;91.20;;;;;;5009529;28;20021;-55
2023/09/24 01:12:52;;;;;;;2.75;2.17;;;14.90;91.20;;;;;;5025880;28;20026;-55
2023/09/24 01:15:18;;;;;;;5.07;2.42;;;15.00;91.20;;;;;;5058165;28;20033;-55
2023/09/24 01:17:43;;;;;;;4.55;2.13;;;14.90;91.20;;;;;;5027412;28;20033;-55
2023/09/24 01:20:13;;;;;;;3.47;1.90;;;14.90;91.30;;;;;;5025867;28;20070;-55
2023/09/24 01:22:41;;;;;;;2.58;1.90;;;14.90;91.30;;;;;;5026316;28;20481;-55
2023/09/24 01:25:07;;;;;;;3.83;2.00;;;14.80;91.30;;;;;;5027616;28;20042;-55
2023/09/24 01:27:36;;;;;;;3.75;2.10;;;14.80;91.40;;;;;;5027514;28;20025;-55
2023/09/24 01:30:05;;;;;;;3.78;2.08;;;14.80;91.40;;;;;;5026135;28;20541;-55
2023/09/24 01:32:31;;;;;;;3.00;2.20;;;14.80;91.40;;;;;;5025736;28;20029;-55
2023/09/24 01:34:56;;;;;;;5.57;1.90;;;14.90;91.40;;;;;;5026083;28;20103;-55
2023/09/24 01:37:22;;;;;;;3.42;2.10;;;14.80;91.40;;;;;;5025533;28;20033;-55
2023/09/24 01:39:50;;;;;;;3.42;1.90;;;14.80;91.40;;;;;;5025479;28;20142;-55
2023/09/24 01:42:15;;;;;;;3.25;2.03;;;14.80;91.40;;;;;;5025603;28;20026;-55
2023/09/24 01:44:42;;;;;;;3.67;1.70;;;14.70;91.40;;;;;;5026173;28;20034;-55
2023/09/24 01:47:07;;;;;;;2.65;1.77;;;14.80;91.50;;;;;;5025293;28;20028;-55
2023/09/24 01:49:34;;;;;;;2.80;1.90;;;14.70;91.50;;;;;;5026650;28;20030;-55
2023/09/24 01:51:59;;;;;;;3.13;1.83;;;14.70;91.60;;;;;;5025467;28;20022;-55
2023/09/24 01:54:25;;;;;;;2.15;1.48;;;14.70;91.60;;;;;;5025324;28;20038;-55
2023/09/24 01:56:52;;;;;;;2.17;1.70;;;14.60;91.60;;;;;;5026461;28;20081;-55
2023/09/24 01:59:17;;;;;;;2.45;1.50;;;14.70;91.70;;;;;;5041655;28;20107;-55
2023/09/24 02:01:46;;;;;;;2.17;1.52;;;14.60;91.60;;;;;;5025402;28;20022;-55
2023/09/24 02:04:11;;;;;;;2.92;1.95;;;14.60;91.60;;;;;;5026299;28;20038;-55
2023/09/24 02:06:37;;;;;;;3.38;1.65;;;14.60;91.70;;;;;;5008795;28;20030;-55
2023/09/24 02:09:03;;;;;;;3.20;1.83;;;14.60;91.70;;;;;;5041616;28;20030;-55
2023/09/24 02:11:28;;;;;;;4.68;1.45;;;14.50;91.70;;;;;;5026472;28;20052;-55
2023/09/24 02:13:54;;;;;;;3.33;1.52;;;14.60;91.70;;;;;;5026392;28;20474;-55
2023/09/24 02:16:19;;;;;;;2.53;1.50;;;14.60;91.70;;;;;;5026330;28;20129;-55
2023/09/24 02:18:46;;;;;;;3.55;1.35;;;14.50;92.00;;;;;;5009018;28;20018;-55
2023/09/24 02:21:14;;;;;;;4.00;1.55;;;14.50;91.70;;;;;;5041695;28;20045;-55
2023/09/24 02:23:40;;;;;;;1.77;1.40;;;14.50;91.70;;;;;;5024978;28;20030;-55
2023/09/24 02:26:09;;;;;;;3.15;1.50;;;14.50;91.70;;;;;;5024982;28;20034;-55
2023/09/24 02:28:40;;;;;;;3.00;1.65;;;14.50;91.80;;;;;;5008910;28;20049;-55
2023/09/24 02:31:06;;;;;;;2.30;1.52;;;14.50;91.80;;;;;;5026125;28;20049;-55
2023/09/24 02:33:32;;;;;;;2.05;1.35;;;14.40;91.80;;;;;;5024953;28;20030;-55
2023/09/24 02:35:58;;;;;;;4.25;1.60;;;14.40;91.80;;;;;;5026102;28;20041;-55
2023/09/24 02:38:24;;;;;;;2.67;1.70;;;14.40;91.80;;;;;;5026903;28;20045;-55
2023/09/24 02:40:50;;;;;;;1.55;1.20;;;14.30;91.90;;;;;;5027938;28;20102;-55
2023/09/24 02:43:15;;;;;;;3.33;1.70;;;14.30;91.90;;;;;;5024789;28;20026;-55
2023/09/24 02:45:41;;;;;;;1.92;1.55;;;14.30;91.90;;;;;;5026370;28;20030;-55
2023/09/24 02:48:07;;;;;;;1.98;1.55;;;14.30;91.90;;;;;;5026299;28;20026;-55
2023/09/24 02:50:33;;;;;;;1.75;1.35;;;14.30;91.90;;;;;;5024820;28;20022;-55
2023/09/24 02:53:00;;;;;;;2.20;1.48;;;14.30;92.00;;;;;;5026195;28;20056;-55
2023/09/24 02:55:27;;;;;;;3.40;1.60;;;14.20;92.00;;;;;;5024734;28;20022;-55
2023/09/24 02:57:52;;;;;;;1.80;1.48;;;14.20;92.10;;;;;;5027959;28;20030;-55
2023/09/24 03:00:26;;;;;;;4.63;1.52;;;14.20;92.10;;;;;;5029560;28;20040;-55
2023/09/24 03:02:53;;;;;;;1.60;1.30;;;14.20;92.10;;;;;;5044264;28;20030;-55
2023/09/24 03:05:24;;;;;;;2.10;1.40;;;14.20;92.10;;;;;;5028360;28;20038;-55
2023/09/24 03:07:50;;;;;;;2.38;1.55;;;14.20;92.10;;;;;;5044443;28;20030;-55
2023/09/24 03:10:16;;;;;;;2.35;1.50;;;14.20;92.10;;;;;;5028233;28;20026;-55
2023/09/24 03:12:42;;;;;;;1.65;1.30;;;14.20;92.10;;;;;;5011918;28;20030;-55
2023/09/24 03:15:10;;;;;;;5.53;1.52;;;14.20;92.20;;;;;;5027883;28;20105;-55
2023/09/24 03:17:39;;;;;;;2.03;1.50;;;14.20;92.20;;;;;;5029434;28;20065;-55
2023/09/24 03:20:14;;;;;;;4.75;1.27;;;14.20;92.30;;;;;;5028072;28;20030;-55
2023/09/24 03:22:42;;;;;;;3.67;1.60;;;14.10;92.30;;;;;;5028300;28;20074;-55
2023/09/24 03:25:11;;;;;;;4.97;1.50;;;14.10;92.30;;;;;;5027788;28;20057;-55
2023/09/24 03:27:38;;;;;;;4.00;1.50;;;14.10;92.30;;;;;;5029077;28;20022;-55
2023/09/24 03:30:09;;;;;;;2.30;1.67;;;14.10;92.30;;;;;;5029246;28;20076;-55
2023/09/24 03:32:37;;;;;;;7.80;1.73;;;14.10;92.40;;;;;;5011579;28;20501;-55
2023/09/24 03:35:05;;;;;;;4.07;1.40;;;14.10;92.40;;;;;;5029019;28;20494;-55
2023/09/24 03:37:31;;;;;;;2.85;1.50;;;14.00;92.40;;;;;;5029040;28;20023;-55
2023/09/24 03:39:57;;;;;;;2.22;1.52;;;14.00;92.50;;;;;;5027633;28;20044;-55
2023/09/24 03:42:22;;;;;;;1.65;1.20;;;14.00;92.50;;;;;;5029030;28;20081;-55
2023/09/24 03:44:48;;;;;;;2.20;1.63;;;14.00;92.50;;;;;;5027336;28;20048;-55
2023/09/24 03:47:14;;;;;;;2.22;1.20;;;14.00;92.50;;;;;;5027693;28;20014;-55
2023/09/24 03:49:41;;;;;;;2.90;1.42;;;14.00;92.60;;;;;;5028804;28;20465;-55
2023/09/24 03:52:06;;;;;;;3.03;1.30;;;13.90;92.60;;;;;;5027649;28;20030;-55
2023/09/24 03:54:32;;;;;;;2.45;1.60;;;13.90;92.70;;;;;;5028766;28;20428;-55
2023/09/24 03:56:58;;;;;;;1.75;1.50;;;13.90;92.70;;;;;;5043930;28;20025;-55
2023/09/24 03:59:23;;;;;;;2.05;1.30;;;13.90;92.70;;;;;;5028722;28;20033;-55
2023/09/24 04:01:49;;;;;;;4.45;1.63;;;13.90;92.70;;;;;;5027135;28;20037;-55
2023/09/24 04:04:14;;;;;;;1.95;1.30;;;13.90;92.70;;;;;;5028518;28;20038;-55
2023/09/24 04:06:40;;;;;;;1.50;1.20;;;13.90;92.70;;;;;;5027376;28;20085;-56
2023/09/24 04:09:06;;;;;;;3.00;1.40;;;13.90;92.80;;;;;;5027019;28;20109;-55
2023/09/24 04:11:32;;;;;;;1.58;1.40;;;13.80;92.80;;;;;;5027317;28;20026;-55
2023/09/24 04:13:58;;;;;;;1.52;1.10;;;13.80;92.80;;;;;;5027029;28;20124;-55
2023/09/24 04:16:24;;;;;;;1.80;1.30;;;13.80;92.80;;;;;;5010721;28;20101;-55
2023/09/24 04:18:50;;;;;;;2.13;1.48;;;13.80;92.80;;;;;;5026926;28;20030;-55
2023/09/24 04:21:17;;;;;;;2.40;1.48;;;13.80;92.90;;;;;;5027089;28;20040;-55
2023/09/24 04:23:42;;;;;;;1.73;1.30;;;13.80;92.90;;;;;;5026642;28;20037;-55
2023/09/24 04:26:20;;;;;;;2.95;1.58;;;13.80;93.00;;;;;;5028251;28;20394;-55
2023/09/24 04:28:45;;;;;;;1.95;1.20;;;13.80;93.00;;;;;;5027049;28;20018;-55
2023/09/24 04:31:11;;;;;;;3.45;1.50;;;13.80;93.00;;;;;;5028266;28;20033;-55
2023/09/24 04:33:37;;;;;;;2.72;1.30;;;13.80;93.10;;;;;;5026612;28;20042;-55
2023/09/24 04:36:05;;;;;;;3.67;1.40;;;13.70;93.10;;;;;;5028023;28;20152;-55
2023/09/24 04:38:30;;;;;;;3.25;1.50;;;13.70;93.10;;;;;;5026912;28;20037;-55
2023/09/24 04:40:57;;;;;;;2.60;1.25;;;13.70;93.20;;;;;;5026589;28;20421;-55
2023/09/24 04:43:22;;;;;;;2.00;1.50;;;13.70;93.20;;;;;;5026657;28;20041;-55
2023/09/24 04:45:48;;;;;;;1.95;1.38;;;13.70;93.20;;;;;;5027958;28;20022;-55
2023/09/24 04:48:14;;;;;;;2.03;1.20;;;13.60;93.50;;;;;;5028113;28;20037;-55
2023/09/24 04:50:39;;;;;;;2.20;1.50;;;13.60;93.20;;;;;;5027906;28;20018;-55
2023/09/24 04:53:06;;;;;;;2.50;1.42;;;13.60;93.20;;;;;;5026653;28;20092;-55
2023/09/24 04:55:32;;;;;;;1.95;1.45;;;13.60;93.30;;;;;;5027507;28;20034;-55
2023/09/24 04:57:58;;;;;;;2.28;1.48;;;13.60;93.30;;;;;;5026286;28;20026;-55
2023/09/24 05:00:24;;;;;;;6.68;1.60;;;13.60;93.30;;;;;;5026402;28;20045;-55
2023/09/24 05:02:49;;;;;;;2.47;1.42;;;13.60;93.30;;;;;;5026026;28;20116;-55
2023/09/24 05:05:15;;;;;;;1.73;1.40;;;13.60;93.30;;;;;;5027459;28;20026;-55
2023/09/24 05:07:41;;;;;;;1.88;1.40;;;13.60;93.40;;;;;;5026095;28;20092;-55
2023/09/24 05:10:08;;;;;;;2.20;1.60;;;13.60;93.40;;;;;;5042493;28;20038;-55
2023/09/24 05:12:33;;;;;;;2.13;1.40;;;13.50;93.40;;;;;;5042696;28;20046;-55
2023/09/24 05:14:59;;;;;;;4.85;1.63;;;13.50;93.40;;;;;;5027270;28;20057;-55
2023/09/24 05:17:24;;;;;;;4.88;1.50;;;13.50;93.70;;;;;;5025702;28;20371;-55
2023/09/24 05:19:50;;;;;;;2.70;1.40;;;13.50;93.50;;;;;;5025201;28;20037;-55
2023/09/24 05:22:16;;;;;;;2.05;1.40;;;13.50;93.50;;;;;;5027024;28;20120;-55
2023/09/24 05:24:42;;;;;;;4.00;1.42;;;13.50;93.50;;;;;;5026845;28;20041;-55
2023/09/24 05:27:07;;;;;;;2.33;1.63;;;13.50;93.50;;;;;;5027051;28;20018;-55
2023/09/24 05:29:34;;;;;;;1.85;1.48;;;13.40;93.50;;;;;;5025925;28;20029;-55
2023/09/24 05:32:02;;;;;;;2.95;1.80;;;13.40;93.50;;;;;;5025618;28;20041;-55
2023/09/24 05:34:28;;;;;;;2.97;1.42;;;13.40;93.50;;;;;;5025589;28;20034;-55
2023/09/24 05:36:54;;;;;;;2.22;1.65;;;13.40;93.50;;;;;;5025554;28;20049;-56
2023/09/24 05:39:19;;;;;;;2.28;1.50;;;13.40;93.60;;;;;;5026850;28;20366;-55
2023/09/24 05:41:45;;;;;;;2.20;1.50;;;13.40;93.60;;;;;;5024447;28;20052;-55
2023/09/24 05:44:12;;;;;;;2.80;1.45;;;13.40;93.60;;;;;;5008946;28;20456;-55
2023/09/24 05:46:37;;;;;;;3.30;1.63;;;13.40;93.60;;;;;;5026784;28;20030;-55
2023/09/24 05:49:04;;;;;;;2.70;1.50;;;13.40;93.70;;;;;;5041819;28;20033;-55
2023/09/24 05:51:30;;;;;;;3.25;1.50;;;13.30;93.70;;;;;;5041559;28;20021;-55
2023/09/24 05:53:56;;;;;;;3.22;1.83;;;13.30;93.70;;;;;;5026544;28;20081;-55
2023/09/24 05:56:21;;;;;;;3.67;1.70;;;13.40;93.70;;;;;;5025158;28;20115;-55
2023/09/24 05:58:47;;;;;;;8.88;1.63;;;13.40;93.70;;;;;;5026402;28;20508;-55
2023/09/24 06:01:16;;;;;;;1.70;1.50;;;13.40;93.70;;;;;;5041702;28;20482;-55
2023/09/24 06:03:41;;;;;;;3.75;2.03;;;13.40;93.70;;;;;;5026365;28;20077;-55
2023/09/24 06:06:10;;;;;;;3.47;1.90;;;13.40;93.70;;;;;;5041683;28;20033;-55
2023/09/24 06:08:37;;;;;;;3.35;1.80;;;13.40;93.80;;;;;;5009003;28;20117;-55
2023/09/24 06:11:03;;;;;;;3.17;1.83;;;13.40;93.80;;;;;;5041654;28;20034;-55
2023/09/24 06:13:29;;;;;;;1.98;1.77;;;13.40;93.80;;;;;;5041375;28;20018;-55
2023/09/24 06:16:01;;;;;;;2.22;1.83;;;13.40;93.90;;;;;;5041757;28;20116;-55
2023/09/24 06:18:26;;;;;;;3.67;2.05;;;13.40;94.20;;;;;;5025023;28;20071;-55
2023/09/24 06:20:52;;;;;;;3.10;2.20;;;13.30;94.00;;;;;;5026329;28;20033;-55
2023/09/24 06:23:17;;;;;;;2.78;1.88;;;13.30;94.10;;;;;;5041490;28;20030;-55
2023/09/24 06:25:43;;;;;;;3.80;1.77;;;13.30;94.10;;;;;;5026157;28;20041;-55
2023/09/24 06:28:09;;;;;;;3.95;2.33;;;13.30;94.10;;;;;;5026724;28;20026;-55
2023/09/24 06:30:38;;;;;;;2.00;1.80;;;13.30;94.20;;;;;;5041228;28;20037;-55
2023/09/24 06:33:04;;;;;;;1.95;1.67;;;13.30;94.50;;;;;;5060534;28;20026;-53
2023/09/24 06:35:30;;;;;;;2.55;1.98;;;13.30;94.30;;;;;;5012905;28;20098;-55
2023/09/24 06:37:56;;;;;;;2.42;1.85;;;13.30;94.30;;;;;;5045671;28;20045;-55
2023/09/24 06:40:21;;;;;;;3.92;2.08;;;13.30;94.40;;;;;;5045465;28;20097;-55
2023/09/24 06:42:47;;;;;;;2.72;1.85;;;13.30;94.70;;;;;;5045141;28;20032;-52
2023/09/24 06:45:13;;;;;;;3.05;2.00;;;13.30;94.40;;;;;;5029890;28;20056;-52
2023/09/24 06:47:38;;;;;;;2.45;2.00;;;13.30;94.40;;;;;;5029991;28;20068;-52
2023/09/24 06:50:04;;;;;;;2.10;1.90;;;13.30;94.50;;;;;;5045311;28;20037;-52
2023/09/24 06:52:31;;;;;;;2.63;2.20;;;13.40;94.60;;;;;;5029777;28;20145;-52
2023/09/24 06:54:56;;;;;;;2.10;1.88;;;13.30;94.50;;;;;;5028600;28;20068;-52
2023/09/24 06:57:22;;;;;;;5.07;2.22;;;13.40;94.60;;;;;;5045075;28;20026;-51
2023/09/24 06:59:48;;;;;;;2.83;1.80;;;13.30;94.90;;;;;;5044936;28;20037;-52
2023/09/24 07:02:15;;;;;;;3.67;2.45;;;13.40;94.60;;;;;;5028394;28;20028;-52
2023/09/24 07:04:40;;;;;;;3.67;2.30;;;13.30;94.60;;;;;;5028232;28;20044;-52
2023/09/24 07:07:07;;;;;;;4.00;2.20;;;13.40;94.60;;;;;;5044830;28;20017;-52
2023/09/24 07:09:33;;;;;;;3.47;1.90;;;13.40;94.60;;;;;;5044388;28;20105;-52
2023/09/24 07:11:59;;;;;;;2.53;2.10;;;13.40;94.60;;;;;;5044829;28;20025;-52
2023/09/24 07:14:24;;;;;;;2.17;1.95;;;13.40;94.60;;;;;;5029490;28;20080;-52
2023/09/24 07:16:50;;;;;;;2.50;1.83;;;13.40;94.60;;;;;;5028132;28;20033;-52
2023/09/24 07:19:16;;;;;;;2.20;1.70;;;13.40;94.60;;;;;;5029509;28;20034;-52
2023/09/24 07:21:42;;;;;;;2.00;1.80;;;13.40;94.60;;;;;;5029348;28;20022;-52
2023/09/24 07:24:08;;;;;;;2.33;1.80;;;13.40;94.60;;;;;;5044252;28;20045;-52
2023/09/24 07:26:33;;;;;;;1.60;1.50;;;13.40;94.50;;;;;;5044562;28;20022;-52
2023/09/24 07:29:00;;;;;;;2.20;1.80;;;13.40;94.50;;;;;;5027446;28;20041;-52
2023/09/24 07:31:26;;;;;;;2.42;1.67;;;13.50;94.50;;;;;;5044356;28;20025;-52
2023/09/24 07:33:53;;;;;;;1.77;1.58;;;13.50;94.50;;;;;;5028992;28;20075;-53
2023/09/24 07:36:19;;;;;;;2.05;1.80;;;13.50;94.50;;;;;;5029226;28;20038;-52
2023/09/24 07:38:44;;;;;;;2.10;1.80;;;13.50;94.60;;;;;;5044513;28;20030;-52
2023/09/24 07:41:10;;;;;;;2.30;1.65;;;13.60;94.60;;;;;;5027588;28;20022;-51
2023/09/24 07:43:41;;;;;;;2.10;1.90;;;13.60;94.60;;;;;;5043635;28;20034;-52
2023/09/24 07:46:11;;;;;;;2.85;1.90;;;13.60;94.60;;;;;;5043862;28;20498;-52
2023/09/24 07:48:36;;;;;;;2.28;1.80;;;13.60;94.70;;;;;;5043655;28;20046;-52
2023/09/24 07:51:02;;;;;;;3.80;1.70;;;13.60;94.70;;;;;;5028862;28;20021;-52
2023/09/24 07:53:27;;;;;;;2.42;1.80;;;13.60;94.60;;;;;;5027539;28;20036;-52
2023/09/24 07:55:57;;;;;;;2.75;1.88;;;13.60;94.60;;;;;;5060656;28;20030;-52
2023/09/24 07:58:23;;;;;;;2.80;1.70;;;13.60;94.50;;;;;;5043890;28;20026;-52
2023/09/24 08:00:49;;;;;;;2.20;2.00;;;13.60;94.60;;;;;;5043777;28;20363;-52
2023/09/24 08:03:15;;;;;;;2.88;1.88;;;13.60;94.60;;;;;;5027200;28;20022;-52
2023/09/24 08:05:41;;;;;;;2.10;1.70;;;13.70;94.70;;;;;;5028159;28;20136;-52
2023/09/24 08:08:06;;;;;;;2.85;2.13;;;13.70;94.70;;;;;;5028168;28;20080;-52
2023/09/24 08:10:32;;;;;;;2.85;2.30;;;13.70;94.70;;;;;;5027067;28;20038;-52
2023/09/24 08:12:58;;;;;;;4.40;2.15;;;13.80;94.70;;;;;;5043485;28;20022;-52
2023/09/24 08:15:24;;;;;;;3.05;2.20;;;13.80;94.70;;;;;;5043272;28;20058;-52
2023/09/24 08:17:49;;;;;;;2.83;2.28;;;13.80;94.70;;;;;;5027987;28;20033;-52
2023/09/24 08:20:15;;;;;;;4.43;2.30;;;13.80;94.70;;;;;;5042998;28;20041;-52
2023/09/24 08:22:40;;;;;;;5.13;2.17;;;13.90;94.80;;;;;;5028025;28;20022;-52
2023/09/24 08:25:06;;;;;;;71.90;13.25;;;13.90;94.80;;;;;;5023345;28;20060;-52
2023/09/24 08:27:32;;;;;;;35.58;7.68;;;13.90;94.90;;;;;;5048284;28;20042;-52
2023/09/24 08:29:57;;;;;;;9.82;3.30;;;14.00;95.00;;;;;;5022429;28;20046;-52
2023/09/24 08:32:23;;;;;;;15.02;3.60;;;14.00;95.00;;;;;;5048125;28;20022;-52
2023/09/24 08:34:49;;;;;;;21.60;4.22;;;14.00;94.90;;;;;;5025284;28;20030;-52
2023/09/24 08:37:15;;;;;;;24.20;5.03;;;14.00;94.90;;;;;;5031833;28;20088;-52
2023/09/24 08:39:40;;;;;;;19.42;4.78;;;14.10;95.10;;;;;;5039153;28;20039;-52
2023/09/24 08:42:08;;;;;;;37.55;5.90;;;14.10;95.30;;;;;;5042686;28;20022;-52
2023/09/24 08:44:36;;;;;;;33.35;5.63;;;14.20;95.30;;;;;;5020187;28;20034;-52
2023/09/24 08:47:01;;;;;;;28.48;5.32;;;14.20;95.20;;;;;;5019889;28;20045;-52
2023/09/24 08:49:27;;;;;;;48.47;6.85;;;14.20;95.30;;;;;;5045004;28;20026;-52
2023/09/24 08:51:54;;;;;;;41.63;6.40;;;14.30;95.50;;;;;;5006283;28;20549;-52
2023/09/24 08:54:20;;;;;;;46.97;6.57;;;14.30;95.70;;;;;;5008356;28;20041;-52
2023/09/24 08:56:46;;;;;;;38.05;6.60;;;14.30;95.70;;;;;;5028847;28;20025;-52
2023/09/24 08:59:11;;;;;;;51.45;7.50;;;14.40;95.70;;;;;;5005703;28;20044;-52
2023/09/24 09:01:37;;;;;;;36.47;7.32;;;14.40;95.90;;;;;;5007774;28;20062;-52
2023/09/24 09:04:03;;;;;;;41.25;8.13;;;14.40;96.00;;;;;;4997015;28;20104;-52
2023/09/24 09:06:32;;;;;;;41.72;8.30;;;14.50;96.00;;;;;;5000781;28;20121;-52
2023/09/24 09:08:58;;;;;;;53.35;8.23;;;14.50;96.00;;;;;;5008524;28;20395;-52
2023/09/24 09:11:40;;;;;;;68.82;9.85;;;14.60;96.30;;;;;;5015238;28;20029;-52
2023/09/24 09:14:06;;;;;;;71.22;11.05;;;14.60;96.30;;;;;;5025973;28;20045;-52
2023/09/24 09:16:33;;;;;;;68.72;10.93;;;14.60;96.50;;;;;;5030615;28;20030;-52
2023/09/24 09:19:02;;;;;;;90.40;10.90;;;14.70;96.60;;;;;;5030967;28;20127;-52
2023/09/24 09:21:28;;;;;;;71.85;9.63;;;14.70;96.50;;;;;;5033468;28;20057;-52
2023/09/24 09:23:53;;;;;;;87.65;12.05;;;14.80;96.60;;;;;;5023876;28;20041;-52
2023/09/24 09:26:26;;;;;;;74.75;11.52;;;14.80;96.70;;;;;;5022651;28;20094;-52
2023/09/24 09:28:52;;;;;;;115.38;14.27;;;14.80;96.60;;;;;;5039168;28;20052;-52
2023/09/24 09:31:17;;;;;;;97.10;13.10;;;14.90;96.70;;;;;;5034829;28;20049;-52
2023/09/24 09:33:44;;;;;;;102.05;14.68;;;14.90;96.80;;;;;;5025394;28;20048;-52
2023/09/24 09:36:23;;;;;;;106.35;13.93;;;14.90;96.80;;;;;;5028667;28;20080;-52
2023/09/24 09:38:50;;;;;;;83.03;12.35;;;15.00;96.90;;;;;;5025134;28;20025;-52
2023/09/24 09:41:17;;;;;;;83.70;12.27;;;15.10;96.80;;;;;;5005994;28;20030;-52
2023/09/24 09:43:42;;;;;;;91.47;13.15;;;15.10;96.60;;;;;;5034391;28;20044;-52
2023/09/24 09:46:08;;;;;;;87.50;14.38;;;15.10;96.50;;;;;;5012866;28;20053;-52
2023/09/24 09:48:33;;;;;;;111.60;13.40;;;15.20;96.50;;;;;;5014190;28;20026;-52
2023/09/24 09:51:08;;;;;;;137.13;16.33;;;15.20;96.40;;;;;;5001738;28;20029;-51
2023/09/24 09:53:34;;;;;;;116.78;17.30;;;15.30;96.20;;;;;;5026451;28;20021;-52
2023/09/24 09:56:10;;;;;;;111.10;14.55;;;15.40;95.90;;;;;;5022068;28;20037;-52
2023/09/24 09:58:36;;;;;;;182.38;18.83;;;15.40;95.80;;;;;;5033848;28;20051;-52
2023/09/24 10:01:05;;;;;;;146.82;16.77;;;15.50;95.60;;;;;;4995018;28;20316;-52
2023/09/24 10:03:38;;;;;;;166.73;21.65;;;15.50;95.60;;;;;;5022846;28;20022;-52
2023/09/24 10:06:06;;;;;;;158.00;19.05;;;15.60;95.80;;;;;;5019328;28;20048;-52
2023/09/24 10:08:34;;;;;;;145.32;17.40;;;15.70;95.50;;;;;;5034673;28;20018;-52
2023/09/24 10:11:01;;;;;;;157.00;16.80;;;15.80;95.20;;;;;;5022460;28;20550;-52
2023/09/24 10:13:46;;;;;;;159.88;18.15;;;15.80;94.90;;;;;;5005391;28;20057;-52
2023/09/24 10:16:29;;;;;;;173.23;20.65;;;15.90;94.80;;;;;;5022514;28;20085;-52
2023/09/24 10:18:55;;;;;;;178.50;19.65;;;15.90;94.80;;;;;;5018591;28;20026;-52
2023/09/24 10:21:37;;;;;;;186.15;20.30;;;15.90;94.80;;;;;;5023789;28;20018;-52
2023/09/24 10:24:15;;;;;;;158.50;18.92;;;15.90;94.70;;;;;;5024261;28;20034;-52
2023/09/24 10:27:05;;;;;;;140.38;18.23;;;16.00;94.70;;;;;;5021586;28;20026;-52
2023/09/24 10:29:46;;;;;;;196.40;19.52;;;16.00;94.60;;;;;;5024969;28;20058;-52
2023/09/24 10:32:17;;;;;;;166.40;20.67;;;16.00;94.60;;;;;;5035441;28;20022;-52
2023/09/24 10:34:54;;;;;;;150.10;19.80;;;16.00;94.60;;;;;;5015605;28;20057;-52
2023/09/24 10:37:21;;;;;;;196.82;22.08;;;16.10;94.50;;;;;;5014168;28;20108;-52
2023/09/24 10:40:04;;;;;;;207.75;24.00;;;16.20;94.40;;;;;;5017901;28;20038;-52
2023/09/24 10:42:30;;;;;;;219.50;24.55;;;16.20;94.30;;;;;;5023200;28;20030;-52
2023/09/24 10:45:08;;;;;;;147.45;22.08;;;16.30;94.20;;;;;;5037060;28;20040;-52
2023/09/24 10:47:40;;;;;;;202.52;25.00;;;16.30;94.00;;;;;;5039655;28;20025;-52
2023/09/24 10:50:10;;;;;;;207.60;23.80;;;16.40;93.70;;;;;;5013893;28;20037;-52
2023/09/24 10:52:54;;;;;;;177.02;21.35;;;16.40;93.60;;;;;;5021111;28;20026;-52
2023/09/24 10:55:36;;;;;;;156.27;18.65;;;16.50;93.60;;;;;;5037886;28;20077;-52
2023/09/24 10:58:11;;;;;;;148.90;21.27;;;16.50;93.50;;;;;;5016386;28;20034;-52
2023/09/24 11:00:37;;;;;;;203.38;24.60;;;16.50;93.40;;;;;;5020535;28;20038;-52
2023/09/24 11:03:07;;;;;;;222.40;25.15;;;16.50;93.30;;;;;;5007074;28;20041;-52
2023/09/24 11:05:44;;;;;;;180.52;23.50;;;16.60;93.20;;;;;;5036670;28;20569;-52
2023/09/24 11:08:11;;;;;;;170.00;20.92;;;16.60;93.00;;;;;;5013232;28;20136;-52
2023/09/24 11:10:36;;;;;;;163.68;21.75;;;16.70;92.90;;;;;;5024437;28;20033;-52
2023/09/24 11:13:03;;;;;;;161.02;20.65;;;16.70;92.80;;;;;;5005035;28;20026;-52
2023/09/24 11:15:32;;;;;;;183.50;21.33;;;16.70;92.60;;;;;;5027765;28;20034;-52
2023/09/24 11:17:58;;;;;;;146.63;20.38;;;16.80;92.50;;;;;;5022880;28;20033;-52
2023/09/24 11:20:25;;;;;;;157.52;19.45;;;16.80;92.30;;;;;;5025112;28;20048;-52
2023/09/24 11:22:58;;;;;;;215.43;25.52;;;16.80;92.20;;;;;;5014944;28;20033;-52
2023/09/24 11:25:24;;;;;;;225.10;25.63;;;16.80;92.10;;;;;;5039540;28;20029;-52
2023/09/24 11:27:50;;;;;;;168.20;19.63;;;16.90;92.00;;;;;;5058939;28;20026;-52
2023/09/24 11:30:17;;;;;;;218.90;25.48;;;16.90;91.70;;;;;;5028740;28;20474;-52
2023/09/24 11:32:46;;;;;;;202.45;23.90;;;17.00;91.60;;;;;;5040775;28;20386;-52
2023/09/24 11:35:13;;;;;;;174.70;22.38;;;17.00;91.70;;;;;;5039456;28;20022;-52
2023/09/24 11:37:50;;;;;;;189.00;20.20;;;17.00;91.40;;;;;;5045036;28;20052;-52
2023/09/24 11:40:28;;;;;;;277.60;28.95;;;17.10;91.20;;;;;;5026503;28;20050;-52
2023/09/24 11:43:04;;;;;;;191.75;22.25;;;17.10;91.00;;;;;;5027307;28;20017;-52
2023/09/24 11:45:38;;;;;;;162.52;20.02;;;17.20;90.90;;;;;;5028752;28;20030;-52
2023/09/24 11:48:05;;;;;;;145.40;18.85;;;17.30;90.90;;;;;;5052322;28;20112;-52
2023/09/24 11:50:30;;;;;;;156.43;18.58;;;17.30;90.60;;;;;;5032671;28;20355;-51
2023/09/24 11:52:56;;;;;;;144.35;17.65;;;17.30;90.40;;;;;;5032984;28;20036;-52
2023/09/24 11:55:21;;;;;;;200.18;24.17;;;17.30;90.30;;;;;;5045677;28;20116;-52
2023/09/24 11:57:47;;;;;;;173.68;20.15;;;17.30;90.40;;;;;;5024494;28;20125;-52
2023/09/24 12:00:13;;;;;;;128.93;15.30;;;17.40;90.00;;;;;;5026478;28;20049;-52
2023/09/24 12:02:39;;;;;;;139.45;17.90;;;17.40;89.40;;;;;;5026485;28;20038;-52
2023/09/24 12:05:05;;;;;;;125.35;15.38;;;17.50;89.10;;;;;;5027047;28;20025;-52
2023/09/24 12:07:33;;;;;;;129.48;16.52;;;17.50;88.20;;;;;;5025310;28;20094;-52
2023/09/24 12:09:59;;;;;;;113.25;13.95;;;17.50;87.80;;;;;;5023608;28;20067;-52
2023/09/24 12:12:25;;;;;;;194.43;20.50;;;17.60;87.10;;;;;;5038692;28;20026;-52
2023/09/24 12:14:50;;;;;;;136.05;16.90;;;17.70;86.60;;;;;;5010247;28;20031;-52
2023/09/24 12:17:16;;;;;;;121.43;15.40;;;17.70;86.20;;;;;;5024595;28;20085;-52
2023/09/24 12:19:41;;;;;;;139.27;18.33;;;17.70;86.00;;;;;;5023579;28;20037;-52
2023/09/24 12:22:07;;;;;;;143.88;15.63;;;17.80;85.90;;;;;;5007747;28;20042;-52
2023/09/24 12:24:34;;;;;;;157.48;17.15;;;17.80;85.40;;;;;;5025963;28;20085;-52
2023/09/24 12:27:00;;;;;;;113.15;15.75;;;17.90;85.30;;;;;;5027500;28;20040;-52
2023/09/24 12:29:25;;;;;;;134.63;14.57;;;17.90;84.80;;;;;;5024129;28;20485;-52
2023/09/24 12:31:51;;;;;;;142.75;17.17;;;18.00;84.30;;;;;;5022764;28;20022;-52
2023/09/24 12:34:16;;;;;;;124.95;15.52;;;18.00;84.50;;;;;;5024539;28;20144;-52
2023/09/24 12:36:42;;;;;;;104.20;13.95;;;18.00;84.10;;;;;;5026927;28;20029;-51
2023/09/24 12:39:07;;;;;;;97.25;12.48;;;18.10;84.00;;;;;;5008933;28;20068;-52